Time;durP1;ratioP1;P1;durP2;ratioP2;P2;SDS_P1;SDS_P2;PMS_P1;PMS_P2;Temp;Humidity;BMP_temperature;BMP_pressure;BME280_temperature;BME280_humidity;BME280_pressure;Samples;Min_cycle;Max_cycle;Signal;HPM_P1;HPM_P2
2022/09/08 04:15:03;;;;;;;2.97;2.17;;;;;;;20.70;90.29;97544.38;512312;22;21036;-89
2022/09/08 04:17:10;;;;;;;3.07;1.83;;;;;;;20.64;90.54;97536.28;4140209;28;21272;-91
2022/09/08 04:19:14;;;;;;;4.93;1.80;;;;;;;20.62;91.06;97540.97;4124878;28;23746;-91
2022/09/08 04:21:17;;;;;;;3.50;1.70;;;;;;;20.60;91.25;97533.19;4157377;28;20646;-91
2022/09/08 04:23:22;;;;;;;3.27;1.50;;;;;;;20.56;91.08;97533.72;4146246;28;20679;-91
2022/09/08 04:25:25;;;;;;;1.77;1.33;;;;;;;20.55;91.29;97535.56;4128653;28;20638;-91
2022/09/08 04:27:28;;;;;;;2.77;1.70;;;;;;;20.56;91.02;97533.72;4127448;28;20628;-91
2022/09/08 04:29:31;;;;;;;3.67;1.50;;;;;;;20.53;90.36;97540.19;4134805;28;20699;-91
2022/09/08 04:31:35;;;;;;;1.90;1.30;;;;;;;20.52;90.15;97548.31;4145633;28;20719;-91
2022/09/08 04:33:41;;;;;;;2.40;1.50;;;;;;;20.46;90.24;97533.97;4156398;28;20663;-91
2022/09/08 04:35:44;;;;;;;2.50;1.60;;;;;;;20.44;91.46;97530.66;4138127;28;20722;-91
2022/09/08 04:37:47;;;;;;;1.93;1.23;;;;;;;20.40;89.97;97534.69;4125803;28;20695;-91
2022/09/08 04:39:51;;;;;;;2.30;1.37;;;;;;;20.34;91.65;97532.75;4124802;28;20669;-91
2022/09/08 04:41:54;;;;;;;2.20;1.50;;;;;;;20.28;89.94;97531.81;4144147;28;20638;-91
2022/09/08 04:44:00;;;;;;;1.90;1.40;;;;;;;20.23;90.34;97531.53;4151652;28;20681;-90
2022/09/08 04:46:04;;;;;;;2.07;1.30;;;;;;;20.17;91.05;97537.53;4140730;28;20643;-91
2022/09/08 04:48:07;;;;;;;2.87;1.50;;;;;;;20.18;90.30;97539.19;4136113;28;20623;-91
2022/09/08 04:50:11;;;;;;;3.27;1.50;;;;;;;20.16;90.97;97538.53;4125738;28;21507;-91
2022/09/08 04:52:14;;;;;;;2.90;1.33;;;;;;;20.15;91.88;97544.84;4142294;28;20650;-92
2022/09/08 04:54:17;;;;;;;2.27;1.47;;;;;;;20.13;91.00;97547.66;4138700;28;20722;-91
2022/09/08 04:56:21;;;;;;;2.93;1.40;;;;;;;20.15;91.63;97544.84;4150915;28;20666;-92
2022/09/08 04:58:25;;;;;;;1.80;1.17;;;;;;;20.13;91.04;97552.97;4123588;28;20640;-91
2022/09/08 05:00:28;;;;;;;2.00;1.40;;;;;;;20.14;91.78;97551.94;4122955;28;20632;-92
2022/09/08 05:02:31;;;;;;;2.27;1.40;;;;;;;20.15;92.06;97558.09;4139927;28;20671;-91
2022/09/08 05:04:34;;;;;;;2.67;1.30;;;;;;;20.10;93.59;97552.47;4135883;28;20638;-91
2022/09/08 05:06:38;;;;;;;2.43;1.23;;;;;;;20.05;92.80;97550.34;4134169;28;21040;-92
2022/09/08 05:08:42;;;;;;;2.63;1.70;;;;;;;20.02;92.15;97555.19;4103211;28;21241;-91
2022/09/08 05:10:45;;;;;;;3.13;1.40;;;;;;;20.05;93.34;97554.84;4109374;28;20706;-91
2022/09/08 05:12:49;;;;;;;2.90;1.40;;;;;;;20.09;93.11;97561.44;4139622;28;21382;-91
2022/09/08 05:14:52;;;;;;;3.00;1.67;;;;;;;20.09;93.26;97562.25;4126630;28;20647;-91
2022/09/08 05:16:55;;;;;;;3.30;1.57;;;;;;;20.09;92.57;97554.31;4127045;28;20636;-91
2022/09/08 05:18:59;;;;;;;2.63;1.50;;;;;;;20.13;93.12;97557.41;4108083;28;20639;-90
2022/09/08 05:21:03;;;;;;;1.60;1.20;;;;;;;20.15;93.87;97560.75;4130820;28;20754;-91
2022/09/08 05:23:07;;;;;;;2.53;1.40;;;;;;;20.13;92.57;97563.56;4139687;28;20707;-91
2022/09/08 05:25:10;;;;;;;3.87;1.70;;;;;;;20.12;92.74;97569.84;4103658;28;20632;-91
2022/09/08 05:27:13;;;;;;;2.40;1.23;;;;;;;20.11;93.33;97568.19;4128399;28;21093;-91
2022/09/08 05:29:16;;;;;;;1.97;1.40;;;;;;;20.11;92.40;97570.84;4138890;28;20635;-90
2022/09/08 05:31:21;;;;;;;3.43;1.50;;;;;;;20.11;93.43;97572.66;4127165;28;21414;-91
2022/09/08 05:33:27;;;;;;;2.53;1.40;;;;;;;20.08;92.41;97575.66;4123594;28;20629;-91
2022/09/08 05:35:30;;;;;;;2.97;1.20;;;;;;;20.10;92.37;97586.91;4126721;28;20655;-91
2022/09/08 05:37:33;;;;;;;3.03;1.23;;;;;;;20.07;93.63;97587.25;4144625;28;20632;-91
2022/09/08 05:39:38;;;;;;;3.40;1.50;;;;;;;20.00;95.37;97592.44;4137930;28;20630;-91
2022/09/08 05:41:41;;;;;;;3.27;1.43;;;;;;;20.00;94.62;97587.13;4138269;28;20656;-91
2022/09/08 05:43:44;;;;;;;1.93;1.50;;;;;;;20.03;94.39;97588.63;4126913;28;20647;-91
2022/09/08 05:45:49;;;;;;;2.80;1.60;;;;;;;20.02;93.57;97600.19;4126259;28;20671;-91
2022/09/08 05:47:53;;;;;;;3.77;1.80;;;;;;;19.99;95.05;97595.25;4126274;28;20643;-91
2022/09/08 05:49:56;;;;;;;3.47;1.57;;;;;;;19.97;94.63;97599.91;4128272;28;20666;-91
2022/09/08 05:51:59;;;;;;;2.30;1.40;;;;;;;19.94;94.99;97605.56;4126704;28;20635;-92
2022/09/08 05:54:02;;;;;;;2.13;1.57;;;;;;;19.91;96.03;97614.66;4130701;28;20650;-90
2022/09/08 05:56:08;;;;;;;2.87;1.60;;;;;;;19.91;95.77;97619.13;4105266;28;20641;-90
2022/09/08 05:58:11;;;;;;;2.30;1.60;;;;;;;19.88;94.83;97622.94;4124795;28;20644;-89
2022/09/08 06:00:26;;;;;;;2.30;1.40;;;;;;;19.85;95.00;97619.81;4141708;28;20746;-90
2022/09/08 06:02:31;;;;;;;2.70;1.70;;;;;;;19.76;96.56;97625.31;4132335;28;20673;-91
2022/09/08 06:04:34;;;;;;;3.97;1.70;;;;;;;19.66;97.73;97620.19;4117655;28;21090;-90
2022/09/08 06:06:38;;;;;;;2.97;1.83;;;;;;;19.55;96.43;97633.00;4123492;28;20662;-90
2022/09/08 06:08:41;;;;;;;2.47;1.83;;;;;;;19.42;98.21;97630.91;4141980;28;20637;-90
2022/09/08 06:10:49;;;;;;;5.13;1.70;;;;;;;19.41;97.98;97631.88;4134987;28;20662;-90
2022/09/08 06:12:54;;;;;;;2.70;1.57;;;;;;;19.39;98.62;97633.88;4130211;28;21278;-89
2022/09/08 06:14:59;;;;;;;3.10;1.57;;;;;;;19.38;98.94;97640.16;4129535;28;20624;-95
2022/09/08 06:17:03;;;;;;;2.27;1.27;;;;;;;19.44;97.50;97634.19;4129108;28;21027;-92
2022/09/08 06:19:09;;;;;;;2.90;1.73;;;;;;;19.44;96.90;97639.50;4139111;28;20637;-93
2022/09/08 06:21:14;;;;;;;2.30;1.30;;;;;;;19.40;97.44;97645.28;4140107;28;20653;-92
2022/09/08 06:23:17;;;;;;;4.10;1.50;;;;;;;19.42;97.75;97641.50;4130710;28;20651;-92
2022/09/08 06:25:20;;;;;;;2.53;1.50;;;;;;;19.46;97.14;97648.06;4129805;28;20780;-92
2022/09/08 06:27:28;;;;;;;3.30;1.30;;;;;;;19.44;97.26;97647.44;4134751;28;20627;-89
2022/09/08 06:29:44;;;;;;;2.70;1.43;;;;;;;19.49;97.25;97647.72;4123752;28;20706;-88
2022/09/08 06:31:51;;;;;;;2.77;1.50;;;;;;;19.54;97.71;97650.69;4124417;28;20635;-88
2022/09/08 06:33:55;;;;;;;2.43;1.60;;;;;;;19.59;98.01;97653.66;4124242;28;20706;-90
2022/09/08 06:36:05;;;;;;;3.30;1.47;;;;;;;19.67;98.19;97658.09;4109074;28;20644;-89
2022/09/08 06:38:13;;;;;;;2.70;1.77;;;;;;;19.72;97.75;97656.56;4130585;28;20631;-89
2022/09/08 06:40:22;;;;;;;4.40;1.47;;;;;;;19.73;96.27;97655.59;4126107;28;20639;-88
2022/09/08 06:42:36;;;;;;;2.20;1.50;;;;;;;19.76;97.50;97649.13;4130173;28;20658;-90
2022/09/08 06:44:43;;;;;;;3.17;1.30;;;;;;;19.75;96.84;97650.94;4126489;28;21255;-89
2022/09/08 06:46:46;;;;;;;2.47;1.23;;;;;;;19.75;95.59;97658.88;4125771;28;20643;-86
2022/09/08 06:48:51;;;;;;;2.67;1.00;;;;;;;19.77;95.47;97662.19;4126282;28;20643;-88
2022/09/08 06:51:06;;;;;;;1.70;1.03;;;;;;;19.78;95.71;97652.44;4122618;28;21598;-89
2022/09/08 06:53:25;;;;;;;3.47;1.00;;;;;;;19.77;94.07;97656.06;4141051;28;20670;-88
2022/09/08 06:55:33;;;;;;;3.93;1.07;;;;;;;19.77;94.50;97654.25;4130121;28;21071;-88
2022/09/08 06:57:40;;;;;;;2.10;1.27;;;;;;;19.75;93.58;97650.94;4133182;28;20637;-89
2022/09/08 07:00:11;;;;;;;2.73;1.47;;;;;;;19.76;91.72;97655.25;4130125;28;20666;-89
2022/09/08 07:02:29;;;;;;;3.43;1.13;;;;;;;19.78;92.46;97655.06;4119053;28;20640;-89
2022/09/08 07:04:40;;;;;;;2.80;1.10;;;;;;;19.78;92.23;97655.06;4130216;28;21051;-89
2022/09/08 07:06:50;;;;;;;2.77;1.00;;;;;;;19.78;93.35;97658.53;4130930;28;20710;-89
2022/09/08 07:09:08;;;;;;;2.20;1.07;;;;;;;19.78;93.46;97658.53;4126952;28;20658;-89
2022/09/08 07:11:18;;;;;;;1.53;1.00;;;;;;;19.80;93.34;97661.00;4131015;28;20663;-89
2022/09/08 07:13:28;;;;;;;1.57;1.20;;;;;;;19.81;93.51;97666.13;4127616;28;20674;-89
2022/09/08 07:15:48;;;;;;;1.80;1.10;;;;;;;19.83;92.84;97672.91;4114742;28;20695;-89
2022/09/08 07:17:53;;;;;;;1.67;1.00;;;;;;;19.84;93.37;97665.78;4143039;28;20658;-89
2022/09/08 07:19:56;;;;;;;2.80;1.10;;;;;;;19.86;93.03;97669.16;4143273;28;20627;-89
2022/09/08 07:22:04;;;;;;;4.50;3.07;;;;;;;19.87;94.17;97679.56;4110385;28;20660;-88
2022/09/08 07:24:11;;;;;;;4.93;4.03;;;;;;;19.89;93.27;97676.72;4128265;28;21105;-89
2022/09/08 07:26:21;;;;;;;2.27;1.00;;;;;;;19.91;91.85;97674.75;4142165;28;21081;-89
2022/09/08 07:28:26;;;;;;;1.90;0.90;;;;;;;19.94;91.17;97674.41;4123566;28;20687;-89
2022/09/08 07:30:29;;;;;;;2.07;1.17;;;;;;;19.97;92.33;97679.34;4130098;28;20619;-89
2022/09/08 07:32:36;;;;;;;1.70;1.10;;;;;;;20.01;91.02;97688.59;4127929;28;20695;-89
2022/09/08 07:34:53;;;;;;;1.87;1.00;;;;;;;20.05;91.62;97689.91;4111019;28;20647;-89
2022/09/08 07:37:05;;;;;;;2.43;1.10;;;;;;;20.10;92.23;97679.59;4143538;28;20730;-89
2022/09/08 07:39:14;;;;;;;1.90;1.13;;;;;;;20.15;91.46;97679.94;4127609;28;20681;-89
2022/09/08 07:41:20;;;;;;;2.20;1.13;;;;;;;20.20;91.85;97678.38;4125116;28;20631;-89
2022/09/08 07:43:25;;;;;;;1.87;1.07;;;;;;;20.21;91.42;97682.69;4126996;28;20695;-89
2022/09/08 07:45:35;;;;;;;2.03;0.90;;;;;;;20.20;89.05;97693.47;4112380;28;21015;-85
2022/09/08 07:47:47;;;;;;;2.30;1.07;;;;;;;20.21;90.48;97695.94;4126758;28;21214;-88
2022/09/08 07:49:54;;;;;;;1.73;1.00;;;;;;;20.23;90.99;97701.06;4125699;28;20675;-89
2022/09/08 07:52:03;;;;;;;1.43;0.80;;;;;;;20.24;90.11;97703.53;4140885;28;21484;-94
2022/09/08 07:54:26;;;;;;;1.60;0.70;;;;;;;20.26;89.56;97701.53;4108592;28;20928;-87
2022/09/08 07:56:37;;;;;;;2.67;1.07;;;;;;;20.31;90.12;97698.38;4142900;28;20637;-87
2022/09/08 07:59:09;;;;;;;3.00;1.00;;;;;;;20.36;89.41;97704.81;4141174;28;20666;-86
2022/09/08 08:01:18;;;;;;;1.93;0.83;;;;;;;20.44;90.41;97710.88;4123773;28;20659;-86
2022/09/08 08:03:36;;;;;;;1.93;0.90;;;;;;;20.44;90.78;97710.06;4127905;28;21003;-86
2022/09/08 08:05:45;;;;;;;5.10;1.37;;;;;;;20.47;89.86;97715.00;4125834;28;20645;-86
2022/09/08 08:07:55;;;;;;;2.43;1.20;;;;;;;20.51;90.31;97721.63;4134235;28;20705;-87
2022/09/08 08:10:04;;;;;;;1.87;0.80;;;;;;;20.56;90.78;97714.78;4123755;28;20728;-88
2022/09/08 08:12:12;;;;;;;2.73;1.20;;;;;;;20.59;88.85;97717.06;4125278;28;20658;-86
2022/09/08 08:14:23;;;;;;;2.07;1.10;;;;;;;20.69;89.71;97725.66;4136309;28;20677;-87
2022/09/08 08:16:35;;;;;;;2.20;1.17;;;;;;;20.82;90.83;97725.88;4136859;28;20655;-88
2022/09/08 08:18:48;;;;;;;3.17;1.00;;;;;;;20.88;88.45;97730.50;4125602;28;20741;-88
2022/09/08 08:20:54;;;;;;;3.80;1.07;;;;;;;20.91;89.24;97740.75;4137531;28;21034;-88
2022/09/08 08:23:20;;;;;;;3.20;1.13;;;;;;;21.20;89.93;97747.00;4107471;28;21286;-88
2022/09/08 08:25:28;;;;;;;1.90;0.97;;;;;;;21.76;90.54;97740.16;4124820;28;22200;-88
2022/09/08 08:27:36;;;;;;;3.10;1.30;;;;;;;21.97;86.38;97737.59;4108680;28;20648;-88
2022/09/08 08:29:48;;;;;;;2.40;1.07;;;;;;;21.89;85.25;97739.50;4126983;28;20639;-88
2022/09/08 08:31:56;;;;;;;2.03;1.23;;;;;;;21.95;85.40;97744.09;4124632;28;20664;-88
2022/09/08 08:34:23;;;;;;;4.20;1.00;;;;;;;22.41;84.65;97747.22;4123558;28;20736;-88
2022/09/08 08:36:27;;;;;;;2.07;1.00;;;;;;;22.71;81.93;97754.13;4140151;28;20639;-87
2022/09/08 08:38:33;;;;;;;2.23;1.00;;;;;;;22.66;80.26;97751.19;4136836;28;20704;-87
2022/09/08 08:40:50;;;;;;;1.80;0.97;;;;;;;22.63;82.11;97751.56;4127653;28;20659;-87
2022/09/08 08:43:00;;;;;;;2.23;1.10;;;;;;;22.46;79.58;97744.84;4125382;28;20738;-87
2022/09/08 08:45:16;;;;;;;2.40;1.00;;;;;;;22.28;79.93;97747.06;4123971;28;20644;-88
2022/09/08 08:47:47;;;;;;;1.70;1.20;;;;;;;22.07;80.24;97734.66;4140078;28;20728;-87
2022/09/08 08:50:10;;;;;;;3.00;1.10;;;;;;;21.88;79.80;97738.69;4138513;28;20643;-87
2022/09/08 08:52:28;;;;;;;4.80;1.20;;;;;;;21.78;80.08;97735.50;4123509;28;20669;-87
2022/09/08 08:54:52;;;;;;;1.30;0.83;;;;;;;21.81;80.54;97737.81;4138987;28;21458;-87
2022/09/08 08:57:14;;;;;;;3.40;1.30;;;;;;;22.43;81.07;97747.03;4122745;28;20634;-87
2022/09/08 08:59:54;;;;;;;2.93;1.00;;;;;;;22.83;78.86;97748.09;4140939;28;20655;-87
2022/09/08 09:02:10;;;;;;;2.43;1.10;;;;;;;22.67;76.91;97752.03;4139472;28;20726;-87
2022/09/08 09:04:25;;;;;;;3.93;1.00;;;;;;;22.89;74.69;97763.31;4139979;28;20646;-87
2022/09/08 09:06:37;;;;;;;3.30;1.00;;;;;;;23.00;74.53;97765.50;4123794;28;20666;-88
2022/09/08 09:09:04;;;;;;;1.70;0.90;;;;;;;22.96;74.49;97750.94;4121568;28;20677;-87
2022/09/08 09:11:23;;;;;;;1.97;1.20;;;;;;;23.31;75.16;97761.50;4105735;28;20626;-87
2022/09/08 09:13:38;;;;;;;1.67;0.80;;;;;;;23.64;73.75;97767.97;4112208;28;20794;-88
2022/09/08 09:16:02;;;;;;;1.60;0.97;;;;;;;23.59;71.88;97773.03;4120992;28;20659;-88
2022/09/08 09:18:40;;;;;;;4.57;0.90;;;;;;;23.46;74.74;97769.44;4121758;28;20648;-88
2022/09/08 09:20:51;;;;;;;1.97;0.97;;;;;;;23.76;74.86;97771.75;4112065;28;20670;-88
2022/09/08 09:22:57;;;;;;;1.77;1.10;;;;;;;23.69;73.96;97766.41;4142225;28;20626;-88
2022/09/08 09:25:18;;;;;;;1.40;0.70;;;;;;;23.86;72.11;97764.22;4122312;28;20678;-88
2022/09/08 09:27:35;;;;;;;2.00;1.00;;;;;;;23.83;71.83;97768.13;4109486;28;20612;-96
2022/09/08 09:29:39;;;;;;;1.80;0.70;;;;;;;23.72;72.20;97768.66;4134728;28;21264;-93
2022/09/08 09:32:23;;;;;;;5.40;0.93;;;;;;;23.58;71.03;97766.06;4139634;28;20639;-93
2022/09/08 09:35:02;;;;;;;1.70;0.80;;;;;;;23.45;71.51;97762.47;4126601;28;20650;-91
2022/09/08 09:37:28;;;;;;;2.43;0.80;;;;;;;23.47;71.81;97769.25;4089227;28;20687;-92
2022/09/08 09:39:49;;;;;;;1.70;1.00;;;;;;;23.43;72.17;97762.66;4124938;28;21247;-91
2022/09/08 09:42:06;;;;;;;1.90;0.90;;;;;;;23.47;71.30;97771.91;4124790;28;20635;-91
2022/09/08 09:44:19;;;;;;;1.50;0.80;;;;;;;23.48;70.29;97757.56;4136018;28;21401;-92
2022/09/08 09:46:54;;;;;;;1.30;0.77;;;;;;;23.30;71.17;97770.53;4141478;28;21005;-91
2022/09/08 09:49:21;;;;;;;1.40;0.90;;;;;;;23.50;72.62;97768.88;4109015;28;20740;-91
2022/09/08 09:51:33;;;;;;;1.70;0.90;;;;;;;23.75;70.35;97762.97;4125937;28;20624;-92
2022/09/08 09:53:49;;;;;;;1.33;0.70;;;;;;;24.04;71.77;97768.06;4105699;28;21119;-92
2022/09/08 09:56:17;;;;;;;2.60;0.80;;;;;;;24.14;69.65;97763.19;4126919;28;20992;-91
2022/09/08 09:58:35;;;;;;;1.70;0.80;;;;;;;24.38;70.14;97765.41;4119950;28;20977;-92
2022/09/08 10:00:54;;;;;;;1.50;0.83;;;;;;;24.52;69.75;97762.63;4121755;28;20685;-91
2022/09/08 10:03:25;;;;;;;1.33;0.70;;;;;;;24.58;68.10;97760.97;4117876;28;21133;-92
2022/09/08 10:05:44;;;;;;;2.90;0.70;;;;;;;24.61;68.44;97763.25;4123581;28;20680;-91
2022/09/08 10:08:19;;;;;;;1.87;0.83;;;;;;;24.66;68.19;97758.97;4122176;28;21142;-91
2022/09/08 10:10:53;;;;;;;1.50;0.90;;;;;;;24.57;69.18;97760.16;4142602;28;20969;-91
2022/09/08 10:13:20;;;;;;;1.50;0.97;;;;;;;24.35;68.28;97752.47;4116985;28;21324;-92
2022/09/08 10:16:02;;;;;;;1.40;0.70;;;;;;;24.13;69.50;97760.72;4108012;28;20748;-91
2022/09/08 10:18:41;;;;;;;2.00;0.90;;;;;;;23.92;70.54;97753.63;4094366;28;20641;-92
2022/09/08 10:21:19;;;;;;;2.40;0.80;;;;;;;23.82;68.81;97747.00;4124788;28;20699;-92
2022/09/08 10:23:50;;;;;;;1.80;1.40;;;;;;;24.03;69.12;97754.94;4076669;28;21099;-92
2022/09/08 10:26:22;;;;;;;3.50;1.50;;;;;;;24.14;68.35;97759.72;4137931;28;20628;-92
2022/09/08 10:29:06;;;;;;;2.47;1.00;;;;;;;24.04;69.31;97753.91;4112064;28;20636;-92
2022/09/08 10:31:41;;;;;;;2.03;0.90;;;;;;;24.21;69.17;97756.88;4112649;28;21218;-92
2022/09/08 10:34:19;;;;;;;1.60;1.03;;;;;;;24.38;68.48;97757.41;4113180;28;20695;-92
2022/09/08 10:36:28;;;;;;;3.33;1.10;;;;;;;24.39;68.01;97753.72;4140719;28;21202;-91
2022/09/08 10:38:57;;;;;;;2.00;0.87;;;;;;;24.18;68.17;97743.13;4126679;28;20630;-92
2022/09/08 10:41:49;;;;;;;1.33;0.83;;;;;;;24.00;67.79;97748.16;4124313;28;20639;-92
2022/09/08 10:44:15;;;;;;;1.50;0.80;;;;;;;24.06;68.78;97734.03;4128596;28;20648;-93
2022/09/08 10:47:12;;;;;;;1.60;0.80;;;;;;;24.05;68.95;97736.91;4127960;28;20633;-92
2022/09/08 10:49:51;;;;;;;1.73;0.80;;;;;;;23.91;68.02;97741.31;4129248;28;21022;-92
2022/09/08 10:52:09;;;;;;;1.60;0.90;;;;;;;23.84;67.47;97732.44;4096718;28;21009;-92
2022/09/08 10:54:37;;;;;;;1.60;0.80;;;;;;;23.79;67.60;97732.22;4129298;28;20768;-91
2022/09/08 10:56:40;;;;;;;2.60;0.93;;;;;;;23.77;66.57;97736.13;4109963;28;20820;-92
2022/09/08 10:59:04;;;;;;;4.40;0.90;;;;;;;23.71;67.15;97723.56;4145515;28;20638;-92
2022/09/08 11:01:33;;;;;;;2.03;0.70;;;;;;;23.69;67.08;97725.59;4131383;28;20648;-91
2022/09/08 11:04:08;;;;;;;2.40;0.73;;;;;;;23.71;66.59;97735.03;4142511;28;20652;-87
2022/09/08 11:06:20;;;;;;;2.40;1.00;;;;;;;23.79;66.79;97739.41;4112689;28;20660;-89
2022/09/08 11:08:55;;;;;;;3.80;1.50;;;;;;;23.75;66.30;97725.66;4125656;28;20753;-90
2022/09/08 11:11:29;;;;;;;2.70;0.80;;;;;;;23.72;66.57;97730.53;4139529;28;20674;-89
2022/09/08 11:13:35;;;;;;;3.93;0.90;;;;;;;23.67;66.07;97732.97;4121997;28;20889;-89
2022/09/08 11:16:00;;;;;;;1.50;0.87;;;;;;;23.65;66.15;97737.66;4121649;28;20675;-89
2022/09/08 11:18:21;;;;;;;2.93;1.10;;;;;;;23.64;67.04;97730.69;4140013;28;20633;-89
2022/09/08 11:20:30;;;;;;;2.47;1.00;;;;;;;23.73;67.75;97742.84;4122556;28;20731;-89
2022/09/08 11:22:42;;;;;;;1.70;1.00;;;;;;;23.78;66.22;97740.41;4111557;28;20729;-89
2022/09/08 11:24:54;;;;;;;2.70;0.80;;;;;;;23.70;66.94;97735.25;4128899;28;20909;-89
2022/09/08 11:27:04;;;;;;;1.70;1.00;;;;;;;23.69;67.57;97747.75;4110456;28;20697;-88
2022/09/08 11:29:09;;;;;;;4.10;1.00;;;;;;;23.69;67.10;97747.75;4110602;28;20621;-86
2022/09/08 11:31:22;;;;;;;2.90;0.97;;;;;;;23.67;68.35;97747.09;4113544;28;20668;-91
2022/09/08 11:34:02;;;;;;;2.97;1.10;;;;;;;23.63;67.65;97747.66;4127844;28;20660;-88
2022/09/08 11:36:16;;;;;;;1.50;0.70;;;;;;;23.61;67.91;97752.34;4105429;28;20619;-89
2022/09/08 11:38:39;;;;;;;5.10;0.83;;;;;;;23.55;66.37;97739.00;4135399;28;20646;-89
2022/09/08 11:41:25;;;;;;;3.20;1.10;;;;;;;23.34;67.56;97739.84;4113686;28;20635;-89
2022/09/08 11:43:30;;;;;;;2.70;1.33;;;;;;;23.28;66.97;97748.59;4098056;28;20625;-91
2022/09/08 11:45:43;;;;;;;3.27;1.33;;;;;;;23.33;67.41;97740.88;4124879;28;20639;-91
2022/09/08 11:48:08;;;;;;;2.90;1.10;;;;;;;23.58;66.68;97747.41;4139608;28;20738;-92
2022/09/08 11:50:28;;;;;;;3.23;0.90;;;;;;;23.69;67.15;97747.75;4123151;28;20642;-91
2022/09/08 11:53:03;;;;;;;1.80;0.80;;;;;;;23.80;66.83;97739.22;4113092;28;20629;-92
2022/09/08 11:55:43;;;;;;;1.90;0.80;;;;;;;23.94;65.60;97743.59;4129316;28;20697;-92
2022/09/08 11:57:55;;;;;;;3.20;1.13;;;;;;;23.94;65.50;97750.78;4127396;28;20641;-92
2022/09/08 12:00:19;;;;;;;2.77;1.00;;;;;;;23.96;65.41;97748.72;4124190;28;20658;-93
2022/09/08 12:02:53;;;;;;;2.90;1.00;;;;;;;24.06;64.60;97743.88;4141271;28;20739;-92
2022/09/08 12:05:04;;;;;;;2.90;1.00;;;;;;;24.09;65.09;97744.31;4124000;28;20658;-91
2022/09/08 12:07:46;;;;;;;2.37;1.10;;;;;;;24.16;64.94;97737.16;4123132;28;21066;-93
2022/09/08 12:10:06;;;;;;;2.90;0.90;;;;;;;24.15;64.31;97736.34;4128394;28;20640;-93
2022/09/08 12:12:27;;;;;;;2.23;0.80;;;;;;;24.05;64.95;97750.22;4141833;28;20634;-91
2022/09/08 12:14:37;;;;;;;2.30;1.10;;;;;;;23.96;64.41;97736.22;4120470;28;20649;-92
2022/09/08 12:16:48;;;;;;;3.17;0.80;;;;;;;23.93;64.47;97741.13;4128745;28;20695;-94
2022/09/08 12:19:00;;;;;;;3.23;1.10;;;;;;;23.91;64.53;97745.84;4124775;28;20669;-93
2022/09/08 12:21:33;;;;;;;2.13;0.90;;;;;;;24.02;65.05;97746.09;4126367;28;20639;-92
2022/09/08 12:23:42;;;;;;;2.30;1.00;;;;;;;24.11;64.02;97739.59;4079723;28;20648;-92
2022/09/08 12:25:55;;;;;;;2.70;0.90;;;;;;;24.06;63.76;97734.03;4123989;28;20639;-92
2022/09/08 12:28:23;;;;;;;1.80;0.80;;;;;;;24.06;65.13;97747.34;4137819;28;20631;-92
2022/09/08 12:30:34;;;;;;;2.00;0.80;;;;;;;24.18;64.67;97735.13;4125208;28;20631;-92
2022/09/08 12:33:08;;;;;;;2.30;1.03;;;;;;;24.38;63.18;97738.72;4139292;28;20695;-89
2022/09/08 12:35:24;;;;;;;3.00;1.10;;;;;;;24.53;62.44;97740.22;4121922;28;20671;-89
2022/09/08 12:37:44;;;;;;;2.10;0.90;;;;;;;24.58;62.10;97743.09;4120025;28;22249;-88
2022/09/08 12:40:07;;;;;;;2.97;1.00;;;;;;;24.59;62.08;97733.28;4136268;28;20645;-88
2022/09/08 12:42:32;;;;;;;2.13;1.03;;;;;;;24.64;61.18;97728.97;4121627;28;20645;-89
2022/09/08 12:44:50;;;;;;;2.40;1.00;;;;;;;24.58;60.97;97724.44;4109507;28;20649;-89
2022/09/08 12:46:59;;;;;;;3.60;1.50;;;;;;;24.49;62.74;97733.66;4139609;28;20650;-91
2022/09/08 12:49:39;;;;;;;2.13;1.00;;;;;;;24.42;62.20;97727.47;4121342;28;20649;-90
2022/09/08 12:51:42;;;;;;;5.37;2.07;;;;;;;24.40;62.08;97726.00;4137431;28;20650;-88
2022/09/08 12:54:09;;;;;;;2.70;1.20;;;;;;;24.54;61.77;97727.72;4120588;28;20641;-90
2022/09/08 12:56:19;;;;;;;2.27;1.27;;;;;;;24.61;61.51;97733.88;4123443;28;20625;-91
2022/09/08 12:58:23;;;;;;;2.50;1.00;;;;;;;24.63;61.81;97738.00;4125930;28;21173;-91
2022/09/08 13:00:30;;;;;;;3.10;0.93;;;;;;;24.55;60.84;97730.19;4115759;28;20753;-91
2022/09/08 13:03:06;;;;;;;1.97;1.00;;;;;;;24.47;61.62;97727.69;4124833;28;20688;-91
2022/09/08 13:05:22;;;;;;;5.30;1.23;;;;;;;24.58;61.52;97729.75;4103768;28;20660;-91
2022/09/08 13:07:31;;;;;;;2.83;1.10;;;;;;;24.65;60.15;97725.28;4123168;28;20669;-91
2022/09/08 13:09:51;;;;;;;4.30;1.23;;;;;;;24.63;60.71;97727.34;4128855;28;20637;-91
2022/09/08 13:12:19;;;;;;;3.35;1.20;;;;;;;24.62;60.56;97730.22;4121959;28;20777;-90
2022/09/08 13:14:32;;;;;;;3.40;1.67;;;;;;;24.58;61.04;97721.75;4109837;28;20230;-91
2022/09/08 13:16:46;;;;;;;2.20;1.30;;;;;;;24.50;60.96;97732.63;4126609;28;20677;-92
2022/09/08 13:18:59;;;;;;;2.90;0.97;;;;;;;24.55;61.59;97722.19;4125485;28;20753;-91
2022/09/08 13:21:10;;;;;;;2.77;1.27;;;;;;;24.68;60.99;97725.69;4146955;28;20624;-91
2022/09/08 13:23:34;;;;;;;5.10;1.30;;;;;;;24.83;61.46;97726.34;4106779;28;20651;-91
2022/09/08 13:25:43;;;;;;;2.77;1.03;;;;;;;24.89;61.36;97724.75;4139490;28;20624;-91
2022/09/08 13:28:01;;;;;;;3.00;1.40;;;;;;;24.74;60.99;97721.41;4125320;28;21247;-91
2022/09/08 13:30:12;;;;;;;2.77;1.17;;;;;;;24.67;60.60;97723.22;4127061;28;20649;-91
2022/09/08 13:32:50;;;;;;;4.33;1.20;;;;;;;24.55;60.76;97722.19;4125450;28;24132;-92
2022/09/08 13:35:04;;;;;;;2.90;1.27;;;;;;;24.41;62.62;97725.81;4125286;28;20663;-91
2022/09/08 13:37:29;;;;;;;3.37;1.53;;;;;;;24.44;62.16;97714.75;4139066;28;20650;-91
2022/09/08 13:39:52;;;;;;;3.60;1.30;;;;;;;24.61;62.30;97712.53;4135874;28;20640;-92
2022/09/08 13:42:12;;;;;;;3.87;1.50;;;;;;;24.63;62.05;97716.66;4129099;28;20793;-90
2022/09/08 13:44:29;;;;;;;5.60;1.30;;;;;;;24.52;61.71;97713.75;4139073;28;20698;-91
2022/09/08 13:46:48;;;;;;;11.40;1.10;;;;;;;24.43;60.87;97707.78;4109601;28;20686;-92
2022/09/08 13:49:05;;;;;;;2.63;1.13;;;;;;;24.31;62.23;97705.84;4119538;28;20639;-90
2022/09/08 13:51:20;;;;;;;4.50;1.40;;;;;;;24.28;61.54;97698.22;4125981;28;20644;-91
2022/09/08 13:53:38;;;;;;;3.90;1.10;;;;;;;24.40;61.06;97700.19;4138950;28;20644;-90
2022/09/08 13:55:52;;;;;;;2.37;1.23;;;;;;;24.54;60.80;97693.88;4108866;28;20763;-89
2022/09/08 13:58:32;;;;;;;6.20;1.63;;;;;;;24.68;61.89;97699.00;4122627;28;20634;-88
2022/09/08 14:01:00;;;;;;;3.40;1.30;;;;;;;24.75;61.21;97699.06;4056984;29;20637;-88
2022/09/08 14:03:05;;;;;;;3.00;1.50;;;;;;;24.77;61.95;97697.00;4122586;28;20650;-92
2022/09/08 14:05:19;;;;;;;3.10;1.30;;;;;;;24.85;61.37;97694.97;4130642;28;20709;-90
2022/09/08 14:07:26;;;;;;;4.33;1.20;;;;;;;24.89;61.36;97692.72;4139782;28;20665;-89
2022/09/08 14:09:30;;;;;;;3.63;1.30;;;;;;;24.82;61.05;97689.19;4109112;28;20729;-90
2022/09/08 14:11:39;;;;;;;3.53;1.20;;;;;;;24.72;60.17;97691.44;4125220;28;20645;-89
2022/09/08 14:13:42;;;;;;;2.63;1.10;;;;;;;24.60;60.81;97689.53;4139923;28;20673;-91
2022/09/08 14:15:49;;;;;;;2.17;1.10;;;;;;;24.58;60.50;97687.09;4108125;28;20729;-90
2022/09/08 14:18:17;;;;;;;2.13;0.90;;;;;;;24.58;61.02;97696.94;4120309;28;21176;-91
2022/09/08 14:20:38;;;;;;;4.03;1.10;;;;;;;24.66;61.98;97690.41;4117310;28;20743;-92
2022/09/08 14:22:50;;;;;;;2.37;1.27;;;;;;;24.70;61.47;97697.00;4123633;28;21023;-90
2022/09/08 14:25:00;;;;;;;1.93;1.03;;;;;;;24.78;61.74;97699.47;4123794;28;20640;-89
2022/09/08 14:27:24;;;;;;;1.80;1.00;;;;;;;24.73;60.73;97690.41;4107244;28;20669;-89
2022/09/08 14:29:38;;;;;;;2.33;1.30;;;;;;;24.59;60.90;97694.06;4128010;28;20637;-87
2022/09/08 14:31:45;;;;;;;2.40;1.20;;;;;;;24.42;61.97;97690.13;4128421;28;21358;-87
2022/09/08 14:33:52;;;;;;;1.87;1.00;;;;;;;24.33;61.82;97682.50;4135370;28;20645;-88
2022/09/08 14:35:59;;;;;;;3.50;1.00;;;;;;;24.35;60.56;97680.47;4138755;28;20653;-86
2022/09/08 14:38:22;;;;;;;2.90;1.23;;;;;;;24.45;61.55;97686.25;4140594;28;20644;-86
2022/09/08 14:40:27;;;;;;;3.10;1.00;;;;;;;24.56;61.06;97683.00;4121695;28;20648;-86
2022/09/08 14:42:53;;;;;;;2.33;1.27;;;;;;;24.64;60.68;97683.59;4128896;28;20685;-86
2022/09/08 14:45:08;;;;;;;2.70;1.10;;;;;;;24.71;59.61;97684.47;4110169;28;20754;-85
2022/09/08 14:47:25;;;;;;;2.10;0.90;;;;;;;24.77;60.22;97692.47;4127440;28;20203;-85
2022/09/08 14:49:57;;;;;;;2.67;1.40;;;;;;;24.80;60.13;97685.91;4108899;28;20638;-86